Aviation Digital Data Service (ADDS)

Output produced by METARs form (0536 UTC 28 September 2022)
found at http://www.aviationweather.gov/metar/data/
 
VTSG 280500Z 25004KT 220V290 9999 SCT020 26/25 Q1007 NOSIG
VTSG 280400Z 25009KT 220V280 9999 VCSH FEW018CB BKN020 29/27 Q1008 TEMPO FM0415 TL0440 4000 RA
VTSG 280300Z 24005KT 210V280 9999 FEW020 SCT030 BKN060 29/26 Q1009 NOSIG
VTSG 280200Z 23004KT 180V260 9999 -RA FEW020 28/25 Q1009 NOSIG
VTSG 280100Z VRB02KT 9999 FEW012 BKN100 27/25 Q1008 NOSIG
VTSG 280000Z 00000KT 9999 4800NW -RA FEW020 SCT035 25/25 Q1007 NOSIG
VTSG 272300Z 00000KT 9999 FEW020 BKN070 25/24 Q1006 NOSIG
VTSG 272200Z 28007KT 230V320 9999 -RA FEW020 BKN070 25/24 Q1006 NOSIG
VTSG 272100Z VRB02KT 9999 FEW020 SCT070 24/24 Q1007 NOSIG
VTSG 272000Z 00000KT 9000 FEW020 BKN070 25/24 Q1007 NOSIG
VTSG 271900Z VRB01KT 9999 FEW020 BKN050 25/24 Q1008 NOSIG
VTSG 271800Z VRB01KT 9999 FEW020 25/24 Q1008 NOSIG
VTSG 271700Z 00000KT 9999 FEW020 25/25 Q1009 NOSIG
VTSG 271600Z 00000KT 9999 FEW020 25/24 Q1010 NOSIG
VTSG 271500Z VRB01KT 9999 FEW020 SCT060 26/24 Q1010 NOSIG
VTSG 271400Z 27004KT 9999 FEW020 26/24 Q1009 NOSIG
VTSG 271300Z VRB01KT 9999 -RA FEW020 SCT080 26/24 Q1008 NOSIG
VTSG 271200Z 32006KT 9999 VCSH FEW020TCU SCT024 26/24 Q1008 NOSIG
VTSG 271100Z 29004KT 9999 -RA FEW020TCU SCT037 BKN080 27/25 Q1007 NOSIG
VTSG 271000Z 28005KT 250V310 9999 VCSH FEW020TCU BKN080 28/24 Q1006 NOSIG
VTSG 270900Z 33003KT 290V010 9999 VCSH FEW020TCU SCT030 28/25 Q1006 NOSIG
VTSG 270800Z 26008KT 9999 -RA FEW020TCU BKN025 30/25 Q1006 NOSIG
VTSG 270700Z 25008KT 220V280 9999 VCSH FEW020TCU SCT024 30/25 Q1007 NOSIG
VTSG 270600Z 24006KT 9999 VCSH FEW020TCU SCT030 BKN050 29/24 Q1008 NOSIG
VTSG 270500Z 25009KT 220V290 9999 VCSH FEW020TCU BKN030 32/25 Q1009 TEMPO FM0515 TL0540 25015G25KT 2000 +RA
TAF VTSG 280500Z 2806/2906 24007KT 9999 SCT020 
     TEMPO 2806/2814 24015G25KT 3000 TSRA FEW018CB SCT020 BKN100 
     TEMPO 2820/2902 24015G25KT 3000 TSRA FEW018CB SCT020 BKN100